Amber, New York
Current Conditions -  °F | °C
As of 8:54 PM on Sunday 25 Jan 2015 (Local Time) from KSYR Reporting Station
Scattered Clouds Scattered Clouds  
Wind Chill:   Ceiling: Unl
Heat Index:   Visibility: 10mi
Dew Point:   Wind: 3mph
Humidity: 80%   Direction: 90°E
Pressure: 30.05"   Gusts: NA
Location:  42.889°N, 76.2819°W
Report Text: KSYR 260154Z 09003KT 10SM SCT200 M14/M17 A3005 RMK AO2 SLP182 T11441172 $
Loading
Personal Weather Stations






























Interactive Weather Map New forecast layout! Learn more

10-Day Weather Forecast

Advertisements
Track Severe Weather on mobile